Time;durP1;ratioP1;P1;durP2;ratioP2;P2;SDS_P1;SDS_P2;PMS_P1;PMS_P2;Temp;Humidity;BMP_temperature;BMP_pressure;BME280_temperature;BME280_humidity;BME280_pressure;Samples;Min_cycle;Max_cycle;Signal;HPM_P1;HPM_P2
2023/12/25 00:02:01;;;;;;;23.63;11.83;;;;;;;9.13;80.19;100771.63;5092146;28;20107;-82
2023/12/25 00:04:27;;;;;;;20.48;11.77;;;;;;;9.14;80.39;100771.66;5092042;28;20078;-83
2023/12/25 00:06:52;;;;;;;21.83;11.77;;;;;;;9.13;80.31;100767.25;5092026;28;20087;-82
2023/12/25 00:09:18;;;;;;;23.33;12.87;;;;;;;9.12;80.31;100772.47;5091419;28;20063;-82
2023/12/25 00:11:44;;;;;;;22.35;12.35;;;;;;;9.10;80.64;100767.22;5092319;28;20246;-83
2023/12/25 00:14:10;;;;;;;25.10;13.57;;;;;;;9.11;80.42;100763.72;5091748;28;20024;-83
2023/12/25 00:16:35;;;;;;;23.63;13.00;;;;;;;9.08;80.71;100765.44;5092251;28;20031;-83
2023/12/25 00:19:00;;;;;;;19.77;11.80;;;;;;;9.07;80.67;100767.19;5091962;28;20020;-82
2023/12/25 00:21:26;;;;;;;26.43;13.03;;;;;;;9.08;80.80;100766.34;5104167;28;20098;-83
2023/12/25 00:23:53;;;;;;;22.10;11.65;;;;;;;9.10;80.72;100763.72;5079124;28;20044;-83
2023/12/25 00:26:18;;;;;;;21.48;11.90;;;;;;;9.11;80.89;100763.72;5099592;28;20024;-83
2023/12/25 00:28:44;;;;;;;22.50;11.83;;;;;;;9.13;80.59;100767.25;5091389;28;20077;-83
2023/12/25 00:31:10;;;;;;;23.23;12.13;;;;;;;9.13;80.56;100762.00;5091647;28;20134;-83
2023/12/25 00:33:35;;;;;;;23.03;12.53;;;;;;;9.12;80.75;100762.88;5091723;28;20476;-82
2023/12/25 00:36:00;;;;;;;23.38;12.32;;;;;;;9.11;80.66;100761.09;5091618;28;20213;-83
2023/12/25 00:38:26;;;;;;;24.47;13.67;;;;;;;9.11;80.87;100757.59;5091671;28;20032;-83
2023/12/25 00:40:52;;;;;;;25.83;13.93;;;;;;;9.10;80.83;100751.47;5091577;28;20024;-83
2023/12/25 00:43:17;;;;;;;25.40;13.60;;;;;;;9.11;80.55;100754.97;5091473;28;20052;-83
2023/12/25 00:45:43;;;;;;;21.77;12.00;;;;;;;9.10;80.66;100751.47;5090775;28;20028;-83
2023/12/25 00:48:08;;;;;;;21.93;12.47;;;;;;;9.10;80.88;100751.47;5091574;28;20481;-83
2023/12/25 00:50:33;;;;;;;21.83;11.70;;;;;;;9.10;80.91;100746.22;5091264;28;20028;-83
2023/12/25 00:52:59;;;;;;;21.33;11.57;;;;;;;9.10;80.75;100747.94;5091479;28;20260;-83
2023/12/25 00:55:24;;;;;;;21.73;11.87;;;;;;;9.10;80.88;100755.81;5091406;28;20107;-83
2023/12/25 00:57:50;;;;;;;24.57;13.07;;;;;;;9.09;81.12;100749.69;5091358;28;20027;-82
2023/12/25 01:00:15;;;;;;;23.53;11.60;;;;;;;9.08;80.77;100747.03;5090867;28;20028;-82
2023/12/25 01:02:41;;;;;;;22.00;12.07;;;;;;;9.09;80.70;100751.44;5091209;28;20052;-82
2023/12/25 01:05:06;;;;;;;21.67;11.77;;;;;;;9.09;80.77;100757.59;5090999;28;20511;-82
2023/12/25 01:07:31;;;;;;;23.93;12.13;;;;;;;9.11;80.74;100749.69;5091118;28;20109;-83
2023/12/25 01:09:57;;;;;;;19.87;11.23;;;;;;;9.05;81.15;100745.28;5091143;28;20032;-82
2023/12/25 01:12:22;;;;;;;20.50;12.43;;;;;;;9.04;81.01;100751.38;5091043;28;20020;-83
2023/12/25 01:14:48;;;;;;;22.05;12.15;;;;;;;9.00;81.03;100750.50;5090608;28;20217;-82
2023/12/25 01:17:13;;;;;;;19.97;11.50;;;;;;;9.02;81.09;100747.84;5072677;28;20301;-83
2023/12/25 01:19:38;;;;;;;20.90;11.90;;;;;;;9.04;80.95;100754.00;5072247;28;20115;-83
2023/12/25 01:22:04;;;;;;;21.00;12.23;;;;;;;9.06;81.20;100754.94;5108479;28;20030;-83
2023/12/25 01:24:29;;;;;;;20.40;12.13;;;;;;;9.05;81.22;100750.53;5109696;28;20051;-83
2023/12/25 01:26:55;;;;;;;19.77;11.63;;;;;;;9.05;81.21;100758.44;5093446;28;20039;-83
2023/12/25 01:29:20;;;;;;;17.43;10.90;;;;;;;9.06;81.17;100757.56;5090363;28;20426;-83
2023/12/25 01:31:45;;;;;;;22.67;11.97;;;;;;;9.07;81.24;100759.31;5090552;28;20027;-82
2023/12/25 01:34:11;;;;;;;23.93;12.30;;;;;;;9.09;81.17;100754.06;5072621;28;20028;-83
2023/12/25 01:36:38;;;;;;;20.88;12.05;;;;;;;9.05;80.99;100758.44;5090604;28;20554;-83
2023/12/25 01:39:04;;;;;;;23.47;12.10;;;;;;;9.05;81.48;100761.06;5090408;28;20028;-82
2023/12/25 01:41:29;;;;;;;24.15;12.55;;;;;;;9.05;81.37;100758.44;5090422;28;20031;-83
2023/12/25 01:43:55;;;;;;;21.70;12.03;;;;;;;9.05;81.37;100764.53;5089949;28;20028;-84
2023/12/25 01:46:20;;;;;;;19.08;11.38;;;;;;;9.04;81.10;100762.78;5072144;28;20024;-83
2023/12/25 01:48:50;;;;;;;22.03;11.90;;;;;;;9.05;81.16;100767.16;5090027;28;20048;-83
2023/12/25 01:51:21;;;;;;;21.27;11.57;;;;;;;9.07;81.36;100761.06;5090317;28;20535;-82
2023/12/25 01:53:47;;;;;;;21.65;11.90;;;;;;;9.08;81.24;100770.69;5090280;28;20032;-83
2023/12/25 01:56:12;;;;;;;19.87;11.67;;;;;;;9.08;81.47;100763.72;5090259;28;20092;-82
2023/12/25 01:58:38;;;;;;;21.30;11.80;;;;;;;9.09;81.21;100765.47;5089855;28;20028;-83
2023/12/25 02:01:03;;;;;;;22.03;11.57;;;;;;;9.09;81.08;100757.59;5090199;28;20081;-83
2023/12/25 02:03:29;;;;;;;21.73;12.33;;;;;;;9.11;81.53;100760.22;5071739;28;20583;-83
2023/12/25 02:05:56;;;;;;;22.80;12.30;;;;;;;9.09;81.37;100765.47;5089864;28;20032;-83
2023/12/25 02:08:21;;;;;;;22.40;12.10;;;;;;;9.11;81.30;100762.84;5071975;28;20035;-82
2023/12/25 02:10:47;;;;;;;23.17;12.52;;;;;;;9.10;81.30;100756.72;5089924;28;20024;-83
2023/12/25 02:13:12;;;;;;;22.70;12.63;;;;;;;9.09;81.08;100765.47;5090021;28;20064;-83
2023/12/25 02:15:39;;;;;;;21.80;12.43;;;;;;;9.11;81.54;100766.38;5089470;28;20036;-83
2023/12/25 02:18:04;;;;;;;21.67;12.35;;;;;;;9.12;81.34;100764.59;5089873;28;20047;-83
2023/12/25 02:20:33;;;;;;;22.40;12.82;;;;;;;9.11;81.34;100763.72;5094351;28;20035;-83
2023/12/25 02:23:01;;;;;;;24.13;12.88;;;;;;;9.12;81.46;100761.97;5109926;28;20031;-83
2023/12/25 02:25:34;;;;;;;19.60;12.10;;;;;;;9.12;81.03;100768.13;5103697;28;20032;-83
2023/12/25 02:28:00;;;;;;;22.75;13.02;;;;;;;9.12;81.35;100765.50;5089620;28;20476;-83
2023/12/25 02:30:27;;;;;;;23.33;13.00;;;;;;;9.11;81.28;100769.00;5089482;28;20039;-82
2023/12/25 02:32:52;;;;;;;22.75;12.57;;;;;;;9.13;81.20;100762.00;5089813;28;20460;-83
2023/12/25 02:35:18;;;;;;;22.87;13.13;;;;;;;9.12;81.55;100757.63;5089966;28;20060;-83
2023/12/25 02:37:43;;;;;;;20.53;11.90;;;;;;;9.11;81.48;100758.47;5071677;28;20121;-83
2023/12/25 02:40:09;;;;;;;21.08;11.70;;;;;;;9.12;81.26;100754.97;5089646;28;20032;-83
2023/12/25 02:42:34;;;;;;;20.50;11.47;;;;;;;9.13;81.12;100756.75;5089484;28;20039;-83
2023/12/25 02:45:00;;;;;;;18.55;11.40;;;;;;;9.12;81.07;100751.47;5088634;28;20032;-82
2023/12/25 02:47:26;;;;;;;15.40;9.20;;;;;;;9.08;80.87;100750.56;5089480;28;20034;-83
2023/12/25 02:49:52;;;;;;;14.90;8.60;;;;;;;9.05;80.85;100747.91;5089512;28;20259;-83
2023/12/25 02:52:17;;;;;;;11.40;7.27;;;;;;;9.02;80.43;100745.22;5089599;28;20267;-82
2023/12/25 02:54:42;;;;;;;13.77;7.90;;;;;;;9.01;80.47;100743.47;5089425;28;20070;-82
2023/12/25 02:57:08;;;;;;;14.70;8.77;;;;;;;9.00;80.61;100750.50;5071387;28;20024;-83
2023/12/25 02:59:33;;;;;;;14.57;7.57;;;;;;;8.98;80.26;100751.31;5070926;28;20043;-83
2023/12/25 03:01:59;;;;;;;13.52;7.30;;;;;;;8.97;80.43;100749.56;5089480;28;20047;-83
2023/12/25 03:04:25;;;;;;;11.67;7.27;;;;;;;8.96;80.32;100739.94;5089296;28;20067;-83
2023/12/25 03:06:50;;;;;;;12.15;7.25;;;;;;;8.97;80.37;100745.22;5089243;28;20028;-83
2023/12/25 03:09:16;;;;;;;14.27;7.90;;;;;;;8.95;80.24;100739.06;5089857;28;20059;-83
2023/12/25 03:11:42;;;;;;;10.98;6.70;;;;;;;8.96;80.47;100739.94;5089226;28;20093;-83
2023/12/25 03:14:07;;;;;;;12.30;7.13;;;;;;;8.96;80.22;100732.03;5089252;28;20460;-83
2023/12/25 03:16:33;;;;;;;13.03;6.60;;;;;;;8.96;79.78;100734.66;5089323;28;20111;-83
2023/12/25 03:18:58;;;;;;;10.32;6.43;;;;;;;8.96;80.09;100732.94;5089461;28;20016;-83
2023/12/25 03:21:23;;;;;;;11.20;6.40;;;;;;;8.95;80.12;100740.78;5101202;28;20039;-83
2023/12/25 03:23:49;;;;;;;11.33;6.40;;;;;;;8.94;80.03;100733.78;5086221;28;20051;-83
2023/12/25 03:26:14;;;;;;;12.97;6.67;;;;;;;8.95;79.96;100730.28;5077412;28;20054;-83
2023/12/25 03:28:40;;;;;;;11.10;6.07;;;;;;;8.94;79.94;100728.53;5068838;28;20037;-83
2023/12/25 03:31:06;;;;;;;10.25;5.90;;;;;;;8.93;80.22;100726.75;5069113;28;20317;-83
2023/12/25 03:33:32;;;;;;;10.00;5.87;;;;;;;8.94;79.90;100725.91;5069038;28;20515;-82
2023/12/25 03:35:58;;;;;;;10.55;6.18;;;;;;;8.92;79.95;100727.63;5069298;28;20036;-82
2023/12/25 03:38:23;;;;;;;11.50;6.00;;;;;;;8.90;80.24;100725.88;5069401;28;20071;-81
2023/12/25 03:40:48;;;;;;;10.30;6.30;;;;;;;8.89;80.33;100726.75;5068775;28;20086;-83
2023/12/25 03:43:14;;;;;;;9.63;5.90;;;;;;;8.89;80.36;100724.09;5067760;28;20346;-83
2023/12/25 03:45:39;;;;;;;11.03;6.17;;;;;;;8.88;80.29;100714.47;5071778;28;20481;-83
2023/12/25 03:48:05;;;;;;;11.40;6.43;;;;;;;8.87;80.03;100712.72;5072519;28;20082;-82
2023/12/25 03:50:30;;;;;;;10.00;6.00;;;;;;;8.86;80.22;100720.56;5072422;28;20511;-82
2023/12/25 03:52:56;;;;;;;10.00;5.80;;;;;;;8.84;80.31;100717.94;5072351;28;20032;-83
2023/12/25 03:55:21;;;;;;;11.33;6.13;;;;;;;8.85;80.36;100714.44;5072355;28;20055;-83
2023/12/25 03:57:46;;;;;;;12.27;6.17;;;;;;;8.84;80.20;100723.19;5072334;28;20105;-83
2023/12/25 04:00:12;;;;;;;10.88;6.32;;;;;;;8.82;80.20;100717.03;5072004;28;20039;-82
2023/12/25 04:02:38;;;;;;;13.53;6.83;;;;;;;8.77;80.08;100705.59;5072061;28;20450;-83
2023/12/25 04:05:04;;;;;;;13.52;6.43;;;;;;;8.75;80.12;100712.56;5071943;28;20163;-82
2023/12/25 04:07:29;;;;;;;11.55;6.65;;;;;;;8.74;80.37;100702.94;5071881;28;20082;-83
2023/12/25 04:09:55;;;;;;;12.97;7.47;;;;;;;8.73;80.11;100709.03;5071941;28;20025;-83
2023/12/25 04:12:20;;;;;;;12.27;7.43;;;;;;;8.70;79.93;100701.13;5072142;28;20034;-83
2023/12/25 04:14:45;;;;;;;11.27;7.03;;;;;;;8.67;80.21;100701.97;5071882;28;20108;-83
2023/12/25 04:17:11;;;;;;;12.33;7.33;;;;;;;8.65;80.06;100706.34;5071890;28;20097;-82
2023/12/25 04:19:36;;;;;;;13.05;7.47;;;;;;;8.63;79.92;100701.94;5070667;28;20025;-83
2023/12/25 04:22:02;;;;;;;11.10;6.73;;;;;;;8.63;80.14;100696.69;5089186;28;20036;-83
2023/12/25 04:24:27;;;;;;;10.77;6.30;;;;;;;8.58;80.00;100694.91;5088918;28;20257;-83
2023/12/25 04:26:52;;;;;;;10.70;6.43;;;;;;;8.56;79.95;100696.63;5073455;28;20043;-83
2023/12/25 04:29:18;;;;;;;10.73;6.93;;;;;;;8.55;80.01;100692.22;5071588;28;20024;-83
2023/12/25 04:31:43;;;;;;;10.73;6.50;;;;;;;8.56;79.94;100685.25;5071725;28;20413;-83
2023/12/25 04:34:08;;;;;;;11.50;6.50;;;;;;;8.52;79.83;100684.31;5070412;28;20536;-83
2023/12/25 04:36:34;;;;;;;11.57;6.60;;;;;;;8.51;80.03;100687.81;5071349;28;20514;-82
2023/12/25 04:38:59;;;;;;;12.40;7.43;;;;;;;8.42;79.30;100691.16;5071840;28;20055;-83
2023/12/25 04:41:25;;;;;;;13.13;7.57;;;;;;;8.40;79.61;100684.16;5071439;28;20035;-83
2023/12/25 04:43:50;;;;;;;13.35;7.65;;;;;;;8.36;79.64;100683.22;5071027;28;20029;-83
2023/12/25 04:46:17;;;;;;;13.00;8.50;;;;;;;8.33;79.50;100681.47;5071259;28;20032;-82
2023/12/25 04:48:42;;;;;;;12.65;7.80;;;;;;;8.35;79.52;100683.22;5069880;28;20024;-83
2023/12/25 04:51:08;;;;;;;14.30;8.33;;;;;;;8.35;79.49;100680.59;5071342;28;20102;-82
2023/12/25 04:53:34;;;;;;;12.93;8.05;;;;;;;8.36;79.62;100682.38;5071338;28;20017;-82
2023/12/25 04:56:00;;;;;;;13.50;8.10;;;;;;;8.37;79.66;100684.13;5070868;28;20329;-83
2023/12/25 04:58:26;;;;;;;13.43;8.35;;;;;;;8.38;79.51;100685.88;5070930;28;20607;-83
2023/12/25 05:00:51;;;;;;;14.63;8.73;;;;;;;8.37;79.26;100684.13;5071035;28;20406;-83
2023/12/25 05:03:17;;;;;;;13.75;8.15;;;;;;;8.33;79.43;100689.34;5070818;28;20074;-82
2023/12/25 05:05:42;;;;;;;14.00;8.73;;;;;;;8.33;79.59;100678.84;5070430;28;20472;-83
2023/12/25 05:08:08;;;;;;;13.40;8.37;;;;;;;8.32;79.29;100684.97;5070853;28;20020;-82
2023/12/25 05:10:33;;;;;;;15.27;9.10;;;;;;;8.32;79.45;100690.22;5070933;28;20016;-83
2023/12/25 05:12:59;;;;;;;15.73;9.17;;;;;;;8.32;79.66;100681.44;5071027;28;20085;-82
2023/12/25 05:15:24;;;;;;;14.43;8.90;;;;;;;8.31;79.29;100680.53;5070459;28;20271;-83
2023/12/25 05:17:50;;;;;;;14.97;8.87;;;;;;;8.27;79.18;100673.50;5070663;28;20024;-82
2023/12/25 05:20:15;;;;;;;14.05;8.73;;;;;;;8.23;79.04;100676.09;5072964;28;20054;-82
2023/12/25 05:22:40;;;;;;;16.73;10.10;;;;;;;8.21;79.49;100676.06;5093747;28;20051;-83
2023/12/25 05:25:06;;;;;;;17.63;10.37;;;;;;;8.18;78.88;100673.41;5107454;28;20031;-81
2023/12/25 05:27:31;;;;;;;17.00;10.27;;;;;;;8.16;79.22;100675.13;5090666;28;20149;-83
2023/12/25 05:29:57;;;;;;;16.40;10.38;;;;;;;8.15;79.02;100674.22;5090287;28;20107;-83
2023/12/25 05:32:22;;;;;;;18.43;11.47;;;;;;;8.15;79.37;100684.72;5090419;28;20039;-83
2023/12/25 05:34:47;;;;;;;18.87;11.43;;;;;;;8.19;79.40;100685.66;5090636;28;20395;-83
2023/12/25 05:37:13;;;;;;;18.10;11.27;;;;;;;8.19;79.42;100691.78;5090441;28;20055;-82
2023/12/25 05:39:38;;;;;;;17.83;11.30;;;;;;;8.21;79.21;100691.81;5090531;28;20047;-82
2023/12/25 05:42:04;;;;;;;19.00;11.52;;;;;;;8.18;79.17;100697.00;5072281;28;20221;-83
2023/12/25 05:44:29;;;;;;;19.97;12.73;;;;;;;8.15;79.52;100694.34;5089840;28;20027;-82
2023/12/25 05:46:55;;;;;;;22.13;14.10;;;;;;;8.09;79.08;100708.25;5090291;28;20035;-83
2023/12/25 05:49:20;;;;;;;19.70;11.83;;;;;;;8.03;79.04;100701.19;5090263;28;20052;-83
2023/12/25 05:51:45;;;;;;;20.25;12.20;;;;;;;8.05;79.21;100702.09;5090234;28;20053;-83
2023/12/25 05:54:11;;;;;;;19.30;12.70;;;;;;;8.07;78.96;100701.22;5072347;28;20028;-83
2023/12/25 05:56:36;;;;;;;19.37;12.20;;;;;;;8.07;79.00;100695.97;5090302;28;20012;-83
2023/12/25 05:59:02;;;;;;;19.50;12.60;;;;;;;8.07;79.08;100704.75;5071612;28;20472;-82
2023/12/25 06:01:27;;;;;;;21.60;13.18;;;;;;;8.07;79.16;100704.75;5090094;28;20108;-83
2023/12/25 06:03:53;;;;;;;21.93;13.60;;;;;;;8.08;79.13;100700.38;5089898;28;20032;-83
2023/12/25 06:06:18;;;;;;;21.40;14.03;;;;;;;8.10;78.92;100702.16;5070964;28;20024;-83
2023/12/25 06:08:43;;;;;;;20.17;12.85;;;;;;;8.08;79.04;100702.97;5089888;28;20012;-83
2023/12/25 06:11:09;;;;;;;20.87;13.30;;;;;;;8.05;79.18;100699.47;5090121;28;20024;-83
2023/12/25 06:13:34;;;;;;;17.90;10.67;;;;;;;7.97;79.14;100703.75;5089615;28;20111;-82
2023/12/25 06:16:03;;;;;;;19.67;11.80;;;;;;;7.99;78.94;100704.63;5089910;28;20167;-83
2023/12/25 06:18:29;;;;;;;18.50;11.85;;;;;;;8.02;79.27;100702.03;5090014;28;20054;-82
2023/12/25 06:20:54;;;;;;;18.80;11.37;;;;;;;8.06;79.15;100700.34;5097724;28;20441;-82
2023/12/25 06:23:19;;;;;;;19.07;12.40;;;;;;;8.05;78.96;100699.47;5109995;28;20499;-82
2023/12/25 06:25:46;;;;;;;16.67;11.38;;;;;;;8.05;79.00;100704.72;5101011;28;20035;-83
2023/12/25 06:28:12;;;;;;;17.50;11.55;;;;;;;8.05;79.15;100699.47;5089439;28;20401;-83
2023/12/25 06:30:38;;;;;;;18.67;11.47;;;;;;;8.04;79.03;100697.69;5089185;28;20035;-83
2023/12/25 06:33:03;;;;;;;18.90;12.10;;;;;;;8.05;79.17;100698.59;5089681;28;20028;-83
2023/12/25 06:35:29;;;;;;;19.55;11.68;;;;;;;8.05;79.25;100699.47;5089754;28;20028;-82
2023/12/25 06:37:54;;;;;;;17.80;11.20;;;;;;;8.08;79.33;100695.13;5089704;28;20116;-83
2023/12/25 06:40:20;;;;;;;20.87;11.67;;;;;;;8.08;78.88;100702.97;5089679;28;20028;-83
2023/12/25 06:42:45;;;;;;;16.37;11.13;;;;;;;8.04;78.95;100697.69;5089755;28;20031;-83
2023/12/25 06:45:10;;;;;;;16.60;10.80;;;;;;;7.98;78.78;100702.88;5089038;28;20476;-82
2023/12/25 06:47:36;;;;;;;18.35;10.43;;;;;;;7.98;79.02;100702.00;5089429;28;20066;-82
2023/12/25 06:50:02;;;;;;;15.77;10.37;;;;;;;7.98;79.16;100700.25;5089671;28;20472;-82
2023/12/25 06:52:27;;;;;;;15.80;9.77;;;;;;;7.97;79.30;100705.50;5089675;28;20077;-83
2023/12/25 06:54:52;;;;;;;15.53;9.57;;;;;;;7.95;79.12;100713.31;5071611;28;20278;-83
2023/12/25 06:57:18;;;;;;;15.13;9.80;;;;;;;7.94;79.13;100710.66;5089652;28;20107;-82
2023/12/25 06:59:44;;;;;;;16.20;10.17;;;;;;;7.94;79.18;100716.81;5089080;28;20024;-83
2023/12/25 07:02:10;;;;;;;15.45;10.10;;;;;;;7.92;78.88;100708.03;5071150;28;20067;-82
2023/12/25 07:04:36;;;;;;;13.85;9.52;;;;;;;7.90;79.22;100709.75;5088947;28;20034;-82
2023/12/25 07:07:02;;;;;;;14.85;9.82;;;;;;;7.87;79.06;100709.72;5089415;28;20028;-82
2023/12/25 07:09:28;;;;;;;15.63;10.20;;;;;;;7.85;79.03;100706.19;5089360;28;20051;-83
2023/12/25 07:11:54;;;;;;;16.35;10.57;;;;;;;7.78;78.81;100701.72;5089382;28;20111;-82
2023/12/25 07:14:19;;;;;;;15.27;10.00;;;;;;;7.73;79.12;100709.53;5089035;28;20116;-82
2023/12/25 07:16:44;;;;;;;13.98;9.73;;;;;;;7.70;79.21;100709.44;5089452;28;20529;-82
2023/12/25 07:19:10;;;;;;;14.43;9.20;;;;;;;7.70;79.42;100707.72;5092699;28;20036;-82
2023/12/25 07:21:35;;;;;;;14.73;10.13;;;;;;;7.69;79.18;100711.22;5107150;28;20051;-83
2023/12/25 07:24:01;;;;;;;17.45;9.80;;;;;;;7.69;79.38;100711.22;5111682;28;20035;-82
2023/12/25 07:26:26;;;;;;;17.27;8.23;;;;;;;7.65;79.01;100712.03;5093068;28;20464;-82
2023/12/25 07:28:52;;;;;;;13.20;8.47;;;;;;;7.67;79.02;100712.03;5092665;28;20035;-82
2023/12/25 07:31:18;;;;;;;14.47;9.27;;;;;;;7.67;78.91;100707.69;5093429;28;20148;-82
2023/12/25 07:33:43;;;;;;;13.10;8.45;;;;;;;7.68;78.81;100709.44;5074615;28;20085;-82
2023/12/25 07:36:09;;;;;;;14.03;9.23;;;;;;;7.69;79.10;100708.59;5093162;28;20035;-82
2023/12/25 07:38:34;;;;;;;13.02;8.30;;;;;;;7.70;79.15;100710.34;5092820;28;20369;-82
2023/12/25 07:41:00;;;;;;;14.20;8.60;;;;;;;7.71;79.02;100709.50;5092850;28;20103;-83
2023/12/25 07:43:26;;;;;;;13.00;8.75;;;;;;;7.72;78.95;100711.25;5092450;28;20057;-82
2023/12/25 07:45:52;;;;;;;14.47;8.73;;;;;;;7.74;79.28;100709.53;5092415;28;20036;-82
2023/12/25 07:48:17;;;;;;;13.13;8.82;;;;;;;7.75;79.05;100710.44;5092658;28;20024;-83
2023/12/25 07:50:43;;;;;;;13.67;8.97;;;;;;;7.78;78.74;100714.81;5092568;28;20173;-83
2023/12/25 07:53:09;;;;;;;12.25;8.55;;;;;;;7.78;79.11;100714.81;5092891;28;20028;-82
2023/12/25 07:55:36;;;;;;;14.90;8.50;;;;;;;7.77;78.99;100708.72;5092785;28;20028;-83
2023/12/25 07:58:02;;;;;;;13.88;8.32;;;;;;;7.78;78.65;100717.44;5092967;28;20295;-82
2023/12/25 08:00:27;;;;;;;12.20;8.27;;;;;;;7.80;78.93;100718.34;5092450;28;20282;-83
2023/12/25 08:02:53;;;;;;;12.37;7.70;;;;;;;7.81;78.78;100709.63;5092362;28;20036;-82
2023/12/25 08:05:18;;;;;;;12.60;7.67;;;;;;;7.82;78.55;100722.75;5092432;28;20297;-83
2023/12/25 08:07:44;;;;;;;12.87;7.90;;;;;;;7.81;78.68;100720.09;5092177;28;20105;-83
2023/12/25 08:10:11;;;;;;;14.10;8.73;;;;;;;7.83;78.66;100721.91;5092431;28;20055;-83
2023/12/25 08:12:38;;;;;;;12.90;8.40;;;;;;;7.83;78.34;100729.75;5092472;28;20270;-82
2023/12/25 08:15:03;;;;;;;13.93;8.75;;;;;;;7.80;78.60;100720.97;5091938;28;20309;-82
2023/12/25 08:17:29;;;;;;;14.23;9.43;;;;;;;7.75;78.60;100721.78;5074125;28;20260;-83
2023/12/25 08:19:54;;;;;;;13.77;8.50;;;;;;;7.74;78.61;100727.88;5091942;28;20032;-82
2023/12/25 08:22:20;;;;;;;16.07;9.80;;;;;;;7.76;78.81;100728.78;5076016;28;20078;-82
2023/12/25 08:24:45;;;;;;;13.50;8.82;;;;;;;7.81;78.79;100730.59;5100167;28;20019;-82
2023/12/25 08:27:10;;;;;;;13.97;8.40;;;;;;;7.83;78.77;100732.38;5092564;28;20483;-83
2023/12/25 08:29:36;;;;;;;15.13;9.53;;;;;;;7.82;78.56;100733.25;5090913;28;20139;-83
2023/12/25 08:32:02;;;;;;;14.55;9.02;;;;;;;7.80;78.20;100731.44;5092014;28;20028;-83
2023/12/25 08:34:27;;;;;;;14.83;8.70;;;;;;;7.83;78.33;100737.63;5091846;28;20062;-84
2023/12/25 08:36:53;;;;;;;12.90;8.27;;;;;;;7.88;78.48;100740.34;5092104;28;20452;-83
2023/12/25 08:39:19;;;;;;;13.23;8.33;;;;;;;7.94;78.28;100740.41;5091803;28;20262;-83
2023/12/25 08:41:45;;;;;;;15.15;9.90;;;;;;;7.95;78.08;100743.91;5091712;28;20028;-83
2023/12/25 08:44:10;;;;;;;15.50;9.90;;;;;;;7.89;78.05;100740.34;5073300;28;20487;-83
2023/12/25 08:46:35;;;;;;;15.73;9.30;;;;;;;7.84;77.98;100742.00;5091362;28;20039;-83
2023/12/25 08:49:01;;;;;;;14.77;9.70;;;;;;;7.84;78.47;100741.16;5091628;28;20056;-83
2023/12/25 08:51:26;;;;;;;15.23;9.93;;;;;;;7.86;78.34;100744.66;5091353;28;20039;-83
2023/12/25 08:53:52;;;;;;;14.50;9.17;;;;;;;7.90;78.46;100741.22;5091249;28;20055;-83
2023/12/25 08:56:28;;;;;;;15.27;9.87;;;;;;;7.90;77.83;100747.34;5091500;28;20110;-83
2023/12/25 08:58:53;;;;;;;16.13;9.63;;;;;;;7.91;78.24;100750.88;5090932;28;20297;-83
2023/12/25 09:01:22;;;;;;;16.35;10.05;;;;;;;7.94;78.22;100756.16;5091317;28;20059;-83
2023/12/25 09:03:47;;;;;;;13.87;8.90;;;;;;;8.00;78.36;100764.09;5091238;28;20492;-83
2023/12/25 09:06:15;;;;;;;14.73;9.00;;;;;;;8.04;77.81;100759.78;5091156;28;20066;-83
2023/12/25 09:08:41;;;;;;;13.95;9.20;;;;;;;8.05;77.82;100754.53;5073001;28;20031;-83
2023/12/25 09:11:09;;;;;;;15.35;9.40;;;;;;;8.07;78.07;100764.19;5091196;28;20024;-83
2023/12/25 09:13:35;;;;;;;14.33;8.80;;;;;;;8.09;77.57;100760.72;5090858;28;20028;-83
2023/12/25 09:16:00;;;;;;;16.02;10.43;;;;;;;8.07;77.73;100758.94;5091107;28;20028;-83
2023/12/25 09:18:26;;;;;;;14.93;9.53;;;;;;;8.07;77.59;100764.19;5090706;28;20055;-83
2023/12/25 09:20:51;;;;;;;15.40;9.13;;;;;;;8.05;77.81;100762.41;5098515;28;20522;-83
2023/12/25 09:23:18;;;;;;;17.63;10.65;;;;;;;8.09;78.02;100762.47;5110964;28;20047;-82
2023/12/25 09:25:43;;;;;;;18.05;10.27;;;;;;;8.05;77.63;100761.56;5102387;28;20315;-83
2023/12/25 09:28:09;;;;;;;15.97;10.73;;;;;;;7.97;77.72;100764.06;5090742;28;20274;-83
2023/12/25 09:30:34;;;;;;;18.23;11.17;;;;;;;7.95;78.19;100765.78;5090607;28;20082;-83
2023/12/25 09:32:59;;;;;;;16.98;10.02;;;;;;;7.96;78.26;100767.53;5090865;28;20024;-83
2023/12/25 09:35:25;;;;;;;17.40;10.30;;;;;;;8.03;78.43;100768.50;5090738;28;20120;-83
2023/12/25 09:37:50;;;;;;;18.13;11.23;;;;;;;8.10;78.00;100767.72;5090635;28;20107;-84
2023/12/25 09:40:16;;;;;;;16.10;10.00;;;;;;;8.13;77.83;100757.28;5090460;28;20032;-83
2023/12/25 09:42:43;;;;;;;15.57;9.10;;;;;;;8.17;78.00;100756.47;5089505;28;20027;-83
2023/12/25 09:45:10;;;;;;;15.02;9.48;;;;;;;8.23;77.56;100753.03;5089827;28;20073;-83
2023/12/25 09:47:36;;;;;;;14.80;9.10;;;;;;;8.29;77.99;100754.88;5072151;28;20126;-83
2023/12/25 09:50:05;;;;;;;15.00;8.93;;;;;;;8.36;77.49;100755.84;5090593;28;20121;-83
2023/12/25 09:52:30;;;;;;;14.13;8.55;;;;;;;8.40;77.20;100757.66;5090525;28;20280;-83
2023/12/25 09:54:56;;;;;;;13.30;8.63;;;;;;;8.43;76.99;100757.69;5090351;28;20272;-83
2023/12/25 09:57:24;;;;;;;15.97;9.87;;;;;;;8.46;76.90;100758.59;5090279;28;20055;-84
2023/12/25 09:59:52;;;;;;;17.58;9.55;;;;;;;8.46;76.85;100755.09;5071583;28;20097;-83
2023/12/25 10:02:21;;;;;;;16.33;9.32;;;;;;;8.48;76.70;100762.13;5090213;28;20032;-83
2023/12/25 10:04:48;;;;;;;16.67;10.10;;;;;;;8.48;76.62;100766.47;5090366;28;20024;-83
2023/12/25 10:07:14;;;;;;;16.27;9.82;;;;;;;8.49;76.67;100765.63;5090027;28;20040;-83
2023/12/25 10:09:40;;;;;;;16.48;9.82;;;;;;;8.46;76.89;100769.09;5090385;28;20548;-83
2023/12/25 10:12:06;;;;;;;16.80;9.97;;;;;;;8.48;77.15;100767.38;5090386;28;20028;-83
2023/12/25 10:14:32;;;;;;;16.75;11.55;;;;;;;8.48;76.58;100761.22;5089314;28;20080;-83
2023/12/25 10:16:58;;;;;;;15.60;10.37;;;;;;;8.46;76.95;100769.09;5089962;28;20040;-83
2023/12/25 10:19:24;;;;;;;16.10;10.80;;;;;;;8.42;76.63;100762.03;5090106;28;20031;-83
2023/12/25 10:21:52;;;;;;;17.15;10.43;;;;;;;8.41;76.72;100756.78;5105647;28;20604;-83
2023/12/25 10:24:17;;;;;;;16.75;9.82;;;;;;;8.44;77.05;100762.06;5108632;28;20187;-84
2023/12/25 10:26:44;;;;;;;17.07;11.03;;;;;;;8.41;76.74;100759.41;5094157;28;20164;-82
2023/12/25 10:29:10;;;;;;;16.45;10.82;;;;;;;8.43;76.61;100757.69;5089462;28;20103;-82
2023/12/25 10:31:43;;;;;;;17.98;11.02;;;;;;;8.42;76.84;100756.78;5071418;28;20024;-83
2023/12/25 10:34:09;;;;;;;16.77;10.77;;;;;;;8.42;76.61;100750.66;5090283;28;20380;-83
2023/12/25 10:36:35;;;;;;;15.88;9.82;;;;;;;8.46;76.75;100752.47;5089769;28;20047;-83
2023/12/25 10:39:00;;;;;;;17.70;9.82;;;;;;;8.51;76.73;100745.56;5089758;28;20024;-83
2023/12/25 10:41:29;;;;;;;15.70;9.00;;;;;;;8.60;76.69;100737.81;5089643;28;20251;-83
2023/12/25 10:43:59;;;;;;;19.05;11.25;;;;;;;8.65;76.47;100732.59;5089196;28;20220;-82
2023/12/25 10:46:29;;;;;;;17.10;10.23;;;;;;;8.63;75.94;100729.06;5089292;28;20024;-82
2023/12/25 10:48:55;;;;;;;16.67;9.93;;;;;;;8.62;76.47;100727.31;5089630;28;20048;-82
2023/12/25 10:51:24;;;;;;;19.42;11.15;;;;;;;8.67;76.26;100724.75;5089447;28;20085;-83
2023/12/25 10:53:50;;;;;;;18.33;9.85;;;;;;;8.68;76.09;100722.16;5092472;28;20073;-82
2023/12/25 10:56:22;;;;;;;17.90;10.30;;;;;;;8.71;76.09;100721.28;5094357;28;20024;-83
2023/12/25 10:58:51;;;;;;;17.25;10.23;;;;;;;8.78;76.23;100711.72;5093643;28;20502;-82
2023/12/25 11:01:25;;;;;;;17.30;11.10;;;;;;;8.84;75.80;100706.53;5093914;28;20082;-82
2023/12/25 11:03:54;;;;;;;19.77;10.95;;;;;;;8.89;75.93;100703.09;5093499;28;20056;-82
2023/12/25 11:06:21;;;;;;;19.48;10.50;;;;;;;8.94;75.92;100691.75;5093358;28;20064;-82
2023/12/25 11:08:47;;;;;;;17.08;9.35;;;;;;;8.93;75.88;100695.25;5093683;28;20391;-83
2023/12/25 11:11:13;;;;;;;18.27;10.40;;;;;;;9.01;75.94;100693.56;5074806;28;20122;-82
2023/12/25 11:13:40;;;;;;;16.27;10.07;;;;;;;9.09;76.00;100689.28;5093077;28;20031;-82
2023/12/25 11:16:06;;;;;;;19.63;10.93;;;;;;;9.16;75.59;100688.44;5093385;28;20054;-83